createdAt,value
2023-04-09T00:00:31.321Z,22.8
2023-04-09T00:01:33.030Z,22.8
2023-04-09T00:02:34.936Z,22.8
2023-04-09T00:03:36.716Z,23
2023-04-09T00:04:38.653Z,23
2023-04-09T00:05:40.451Z,22.9
2023-04-09T00:06:42.052Z,23
2023-04-09T00:07:44.697Z,23
2023-04-09T00:08:46.640Z,23
2023-04-09T00:09:48.218Z,22.9
2023-04-09T00:10:50.178Z,23.1
2023-04-09T00:11:51.825Z,23
2023-04-09T00:12:53.612Z,23.1
2023-04-09T00:13:55.508Z,23
2023-04-09T00:14:57.283Z,23
2023-04-09T00:15:59.207Z,22.9
2023-04-09T00:17:01.527Z,23
2023-04-09T00:18:03.315Z,22.9
2023-04-09T00:19:05.339Z,23
2023-04-09T00:20:06.876Z,22.9
2023-04-09T00:21:09.033Z,22.8
2023-04-09T00:22:10.947Z,22.8
2023-04-09T00:23:12.917Z,23
2023-04-09T00:24:14.765Z,22.8
2023-04-09T00:25:16.856Z,23
2023-04-09T00:26:18.936Z,22.8
2023-04-09T00:27:21.002Z,22.9
2023-04-09T00:28:22.934Z,22.9
2023-04-09T00:29:25.106Z,22.9
2023-04-09T00:30:26.966Z,22.9
2023-04-09T00:31:29.114Z,23
2023-04-09T00:32:31.384Z,23
2023-04-09T00:33:33.698Z,23.1
2023-04-09T00:34:35.595Z,23
2023-04-09T00:35:37.742Z,23.1
2023-04-09T00:36:39.948Z,23
2023-04-09T00:37:41.631Z,23.1
2023-04-09T00:38:43.557Z,23
2023-04-09T00:39:45.452Z,23.1
2023-04-09T00:40:47.348Z,23
2023-04-09T00:41:49.529Z,23
2023-04-09T00:42:51.443Z,23.1
2023-04-09T00:43:53.569Z,23.2
2023-04-09T00:44:55.670Z,23
2023-04-09T00:45:57.789Z,22.9
2023-04-09T00:46:59.793Z,23
2023-04-09T00:48:01.901Z,22.9
2023-04-09T00:49:03.882Z,22.9
2023-04-09T00:50:05.744Z,23.1
2023-04-09T02:40:09.682Z,23.2
2023-04-09T02:41:11.643Z,23.1
2023-04-09T02:42:13.532Z,23.4
2023-04-09T02:43:15.498Z,23.4
2023-04-09T02:44:17.335Z,23.2
2023-04-09T02:45:19.308Z,23.3
2023-04-09T02:46:21.205Z,23.3
2023-04-09T02:50:29.446Z,23.2
2023-04-09T02:51:31.291Z,23.3
2023-04-09T02:52:33.169Z,23.2
2023-04-09T08:43:47.140Z,22.5
2023-04-09T08:44:38.323Z,22.5
2023-04-09T08:45:40.140Z,22.6
2023-04-09T08:46:42.214Z,22.5
2023-04-09T08:47:44.314Z,22.6
2023-04-09T08:48:46.273Z,22.7
2023-04-09T08:49:48.280Z,22.5
2023-04-09T08:50:50.176Z,22.4
2023-04-09T08:51:52.168Z,22.6
2023-04-09T08:52:53.967Z,22.6
2023-04-09T08:53:55.950Z,22.5
2023-04-09T08:54:57.597Z,22.5
2023-04-09T08:55:59.893Z,22.5
2023-04-09T08:57:01.695Z,22.4
2023-04-09T08:58:03.675Z,22.6
2023-04-09T08:59:05.716Z,22.6
2023-04-09T09:00:07.814Z,22.5
2023-04-09T09:01:10.443Z,22.6
2023-04-09T09:02:14.970Z,22.6
2023-04-09T09:03:16.974Z,22.5
2023-04-09T09:04:19.363Z,22.5
2023-04-09T09:05:21.337Z,22.5
2023-04-09T09:06:23.168Z,22.5
2023-04-09T09:07:25.194Z,22.5
2023-04-09T09:08:27.200Z,22.5
2023-04-09T09:09:29.109Z,22.5
2023-04-09T09:10:31.089Z,22.5
2023-04-09T09:11:33.144Z,22.4
2023-04-09T09:12:34.843Z,22.6
2023-04-09T09:13:36.822Z,22.5
2023-04-09T09:14:38.864Z,22.5
2023-04-09T09:15:40.908Z,22.5
2023-04-09T09:16:43.366Z,22.5
2023-04-09T09:17:45.932Z,22.4
2023-04-09T09:18:47.505Z,22.6
2023-04-09T09:19:49.246Z,22.6
2023-04-09T09:20:51.170Z,22.5
2023-04-09T09:22:55.575Z,22.5
2023-04-09T09:23:57.364Z,22.5
2023-04-09T09:24:59.153Z,22.5
2023-04-09T09:26:00.979Z,22.5
2023-04-09T09:27:03.112Z,22.6
2023-04-09T15:10:38.125Z,22.6
2023-04-09T15:11:39.918Z,22.7
2023-04-09T15:12:41.648Z,22.8
2023-04-09T15:13:43.247Z,22.7
2023-04-09T15:14:44.770Z,22.7
2023-04-09T15:15:46.499Z,22.8
2023-04-09T15:16:48.466Z,22.8
2023-04-09T15:17:50.449Z,22.7
2023-04-09T15:18:52.886Z,22.8
2023-04-09T15:19:54.769Z,22.7
2023-04-09T15:20:56.326Z,22.8
2023-04-09T15:21:58.248Z,22.6
2023-04-09T15:22:59.878Z,22.8
2023-04-09T15:24:01.857Z,22.6
2023-04-09T15:25:03.744Z,22.8
2023-04-09T15:26:05.609Z,22.6
2023-04-09T15:27:07.502Z,22.8
2023-04-09T15:28:09.384Z,22.9
2023-04-09T15:29:10.928Z,22.8
2023-04-09T15:30:12.677Z,22.7
2023-04-09T15:31:14.304Z,22.6
2023-04-09T15:32:16.107Z,22.8
2023-04-09T15:33:18.000Z,23
2023-04-09T15:34:19.869Z,22.8
2023-04-09T15:35:21.730Z,22.6
2023-04-09T15:36:23.318Z,22.7
2023-04-09T15:37:25.032Z,22.7
2023-04-09T15:38:26.912Z,22.8
2023-04-09T15:39:28.720Z,22.8
2023-04-09T15:40:30.451Z,22.7
2023-04-09T15:41:32.336Z,22.8
2023-04-09T15:42:34.200Z,22.6
2023-04-09T15:43:36.070Z,22.9
2023-04-09T15:44:37.745Z,22.8
2023-04-09T15:45:39.432Z,22.6
2023-04-09T15:46:41.349Z,22.8
2023-04-09T15:47:43.186Z,22.6
2023-04-09T15:48:44.985Z,22.8
2023-04-09T15:49:46.604Z,22.7
2023-04-09T15:50:48.331Z,22.7
2023-04-09T15:51:50.229Z,22.8
2023-04-09T15:52:52.167Z,22.8
2023-04-09T15:53:53.987Z,22.7
2023-04-09T15:54:55.868Z,22.7
2023-04-09T15:55:57.343Z,22.9
2023-04-09T15:56:59.173Z,22.7
2023-04-09T15:58:01.066Z,22.7
2023-04-09T15:59:02.843Z,22.8
2023-04-09T16:00:04.715Z,22.9
2023-04-09T16:01:06.678Z,22.9
2023-04-09T16:02:08.613Z,22.8
2023-04-09T16:03:10.336Z,22.7
2023-04-09T16:04:11.940Z,22.7
2023-04-09T16:05:13.837Z,22.7
2023-04-09T16:06:15.723Z,22.7
2023-04-09T16:07:17.623Z,22.7
2023-04-09T16:08:19.562Z,22.5
2023-04-09T16:09:21.291Z,22.7
2023-04-09T16:10:23.015Z,22.9
2023-04-09T16:11:24.915Z,22.8
2023-04-09T16:12:26.533Z,22.8
2023-04-09T16:13:28.300Z,22.6
2023-04-09T16:14:30.191Z,22.7
2023-04-09T16:15:32.076Z,22.6
2023-04-09T16:16:33.833Z,22.6
2023-04-09T16:17:40.610Z,22.8
2023-04-09T16:18:40.746Z,22.6
2023-04-09T16:19:42.654Z,22.8
2023-04-09T16:20:44.541Z,22.6
2023-04-09T16:21:46.244Z,22.7
2023-04-09T16:22:47.930Z,22.6
2023-04-09T16:23:49.836Z,22.6
2023-04-09T16:24:51.608Z,22.6
2023-04-09T16:25:53.335Z,22.6
2023-04-09T16:26:55.315Z,22.6
2023-04-09T16:27:57.046Z,22.7
2023-04-09T16:28:58.785Z,22.6
2023-04-09T16:30:00.610Z,22.8
2023-04-09T16:31:02.555Z,22.6
2023-04-09T16:32:04.282Z,22.6
2023-04-09T16:33:05.851Z,22.7
2023-04-09T16:34:07.623Z,22.6
2023-04-09T16:35:09.510Z,22.6
2023-04-09T16:36:11.281Z,22.7
2023-04-09T16:37:13.000Z,22.7
2023-04-09T16:38:14.889Z,22.6
2023-04-09T16:39:16.823Z,22.7
2023-04-09T16:40:18.534Z,22.6
2023-04-09T16:41:20.122Z,22.7
2023-04-09T16:42:22.045Z,22.5
2023-04-09T16:43:23.823Z,22.6
2023-04-09T16:44:25.706Z,22.6
2023-04-09T16:45:27.406Z,22.6
2023-04-09T16:46:29.402Z,22.5
2023-04-09T16:47:31.120Z,22.5
2023-04-09T16:48:33.033Z,22.6
2023-04-09T16:49:34.627Z,22.6
2023-04-09T16:50:36.545Z,22.6
2023-04-09T16:51:38.145Z,22.6
2023-04-09T16:52:39.939Z,22.5
2023-04-09T16:53:41.692Z,22.7
2023-04-09T16:54:43.627Z,22.6
2023-04-09T16:55:45.323Z,22.7
2023-04-09T16:56:47.207Z,22.7
2023-04-09T16:57:49.012Z,22.6
2023-04-09T16:58:51.033Z,22.8
2023-04-09T16:59:53.030Z,22.6
2023-04-09T17:00:54.798Z,22.7
2023-04-09T17:01:56.763Z,22.6
2023-04-09T17:02:58.613Z,22.6
2023-04-09T17:04:00.634Z,22.7
2023-04-09T17:05:02.552Z,22.8
2023-04-09T17:06:04.354Z,22.6
2023-04-09T17:07:06.084Z,22.8
2023-04-09T17:08:07.706Z,22.6
2023-04-09T17:09:09.606Z,22.6
2023-04-09T17:10:11.575Z,22.7
2023-04-09T17:11:13.262Z,22.6
2023-04-09T17:12:15.153Z,22.6
2023-04-09T17:13:16.809Z,22.7
2023-04-09T17:14:18.682Z,22.7
2023-04-09T17:15:20.229Z,22.8
2023-04-09T17:16:22.069Z,22.5
2023-04-09T17:17:23.776Z,22.6
2023-04-09T17:18:25.675Z,22.6
2023-04-09T17:19:27.408Z,22.8
2023-04-09T17:20:29.559Z,22.6
2023-04-09T17:21:31.454Z,22.8
2023-04-09T17:22:33.330Z,22.8
2023-04-09T17:23:35.133Z,22.6
2023-04-09T17:24:36.916Z,22.7
2023-04-09T17:25:38.858Z,22.6
2023-04-09T17:26:40.730Z,22.5
2023-04-09T17:27:42.601Z,22.7
2023-04-09T17:28:44.497Z,22.6
2023-04-09T17:29:46.374Z,22.5
2023-04-09T17:30:48.112Z,22.7
2023-04-09T17:31:49.985Z,22.7
2023-04-09T17:32:51.747Z,22.7
2023-04-09T17:33:53.505Z,22.6
2023-04-09T17:34:55.321Z,22.8
2023-04-09T17:35:56.899Z,22.7
2023-04-09T17:36:58.666Z,22.6
2023-04-09T17:38:00.535Z,22.6
2023-04-09T17:39:02.332Z,22.7
2023-04-09T17:40:04.003Z,22.7
2023-04-09T17:41:07.543Z,22.8
2023-04-09T17:42:09.638Z,22.8
2023-04-09T17:43:11.256Z,22.6
2023-04-09T17:44:12.677Z,22.6
2023-04-09T17:45:14.580Z,22.6
2023-04-09T17:46:16.532Z,22.5
2023-04-09T17:47:18.454Z,22.8
2023-04-09T17:48:20.189Z,22.6
2023-04-09T17:49:22.075Z,22.8
2023-04-09T17:50:23.871Z,22.6
2023-04-09T17:51:25.756Z,22.5
2023-04-09T17:52:27.645Z,22.8
2023-04-09T17:53:29.366Z,22.5
2023-04-09T17:54:31.247Z,22.6
2023-04-09T17:55:33.040Z,22.7
2023-04-09T17:56:34.959Z,22.6
2023-04-09T17:57:36.776Z,22.7
2023-04-09T17:58:38.556Z,22.6
2023-04-09T17:59:40.296Z,22.7
2023-04-09T18:00:42.337Z,22.7
2023-04-09T18:01:44.283Z,22.6
2023-04-09T18:02:46.491Z,22.7
2023-04-09T18:03:48.771Z,22.7
2023-04-09T18:04:50.708Z,22.6
2023-04-09T18:05:52.813Z,22.6
2023-04-09T18:06:54.756Z,22.6
2023-04-09T18:07:56.400Z,22.6
2023-04-09T18:08:58.100Z,22.7
2023-04-09T18:09:59.989Z,22.6
2023-04-09T18:11:11.235Z,22.7
2023-04-09T18:12:06.763Z,22.7
2023-04-09T18:13:08.711Z,22.5
2023-04-09T18:14:10.487Z,22.7
2023-04-09T18:15:12.317Z,22.6
2023-04-09T18:16:14.015Z,22.6
2023-04-09T18:17:16.418Z,22.7
2023-04-09T18:18:18.307Z,22.6
2023-04-09T18:19:20.175Z,22.6
2023-04-09T18:20:22.069Z,22.6
2023-04-09T18:21:23.955Z,22.6
2023-04-09T18:22:25.734Z,22.6
2023-04-09T18:23:27.514Z,22.5
2023-04-09T18:24:29.308Z,22.7
2023-04-09T18:25:31.063Z,22.8
2023-04-09T18:26:32.565Z,22.5
2023-04-09T18:27:34.304Z,22.7
2023-04-09T18:28:36.343Z,22.7
2023-04-09T18:29:38.220Z,22.7
2023-04-09T18:30:39.969Z,22.6
2023-04-09T18:31:41.801Z,22.5
2023-04-09T18:32:43.734Z,22.7
2023-04-09T18:33:45.626Z,22.6
2023-04-09T18:34:47.525Z,22.7
2023-04-09T18:35:49.278Z,22.5
2023-04-09T18:36:51.166Z,22.7
2023-04-09T18:37:52.902Z,22.5
2023-04-09T18:38:54.885Z,22.5
2023-04-09T18:39:56.962Z,22.4
2023-04-09T18:40:58.748Z,22.6
2023-04-09T18:42:00.340Z,22.7
2023-04-09T18:43:02.074Z,22.5
2023-04-09T18:44:04.031Z,22.7
2023-04-09T18:45:05.743Z,22.7
2023-04-09T18:46:07.689Z,22.5
2023-04-09T18:47:09.602Z,22.6
2023-04-09T18:48:11.360Z,22.5
2023-04-09T18:49:13.130Z,22.7
2023-04-09T18:50:15.022Z,22.7
2023-04-09T18:51:18.267Z,22.6
2023-04-09T18:52:20.729Z,22.6
2023-04-09T18:53:22.453Z,22.7
2023-04-09T18:54:24.070Z,22.6
2023-04-09T18:55:25.942Z,22.7
2023-04-09T18:56:27.815Z,22.7
2023-04-09T18:57:29.616Z,22.6
2023-04-09T18:58:31.503Z,22.8
2023-04-09T18:59:33.212Z,22.7
2023-04-09T19:00:34.959Z,22.7
2023-04-09T19:01:36.896Z,22.5
2023-04-09T19:02:38.778Z,22.6
2023-04-09T19:03:40.651Z,22.7
2023-04-09T19:04:42.946Z,22.6
2023-04-09T19:05:44.746Z,22.6
2023-04-09T19:06:46.522Z,22.7
2023-04-09T19:07:48.110Z,22.5
2023-04-09T19:08:50.017Z,22.7
2023-04-09T19:09:51.684Z,22.7
2023-04-09T19:10:53.477Z,22.6
2023-04-09T19:11:55.365Z,22.7
2023-04-09T19:12:57.062Z,22.6
2023-04-09T19:13:58.939Z,22.8
2023-04-09T19:15:00.849Z,22.5
2023-04-09T19:16:02.681Z,22.6
2023-04-09T19:17:04.410Z,22.7
2023-04-09T19:18:06.378Z,22.7
2023-04-09T19:19:08.072Z,22.6
2023-04-09T19:20:09.865Z,22.7
2023-04-09T19:21:11.382Z,22.7
2023-04-09T19:22:13.253Z,22.7
2023-04-09T19:23:15.129Z,22.6
2023-04-09T19:24:16.786Z,22.8
2023-04-09T19:25:18.675Z,22.8
2023-04-09T19:26:20.433Z,22.7
2023-04-09T19:27:22.327Z,22.8
2023-04-09T19:28:24.126Z,22.6
2023-04-09T19:29:25.785Z,22.6
2023-04-09T19:30:27.686Z,22.6
2023-04-09T19:31:29.229Z,22.7
2023-04-09T19:32:31.101Z,22.8
2023-04-09T19:33:32.992Z,22.7
2023-04-09T19:34:34.682Z,22.8
2023-04-09T19:35:36.616Z,22.8
2023-04-09T19:36:38.261Z,22.6
2023-04-09T19:37:40.036Z,22.7
2023-04-09T19:38:41.833Z,22.7
2023-04-09T19:39:43.612Z,22.7
2023-04-09T19:40:45.520Z,22.8
2023-04-09T19:41:47.212Z,22.6
2023-04-09T19:42:48.997Z,22.6
2023-04-09T19:43:50.876Z,22.7
2023-04-09T19:44:52.739Z,22.7
2023-04-09T19:45:54.658Z,22.6
2023-04-09T19:46:56.565Z,22.6
2023-04-09T19:47:58.355Z,22.6
2023-04-09T19:49:00.252Z,22.8
2023-04-09T19:50:02.151Z,22.7
2023-04-09T19:51:03.699Z,22.8
2023-04-09T19:52:05.336Z,22.6
2023-04-09T19:53:07.051Z,22.7
2023-04-09T19:54:08.839Z,22.8
2023-04-09T19:55:10.362Z,22.6
2023-04-09T19:56:12.169Z,22.7
2023-04-09T19:57:13.960Z,22.7
2023-04-09T19:58:15.748Z,22.7
2023-04-09T19:59:17.681Z,22.5
2023-04-09T20:00:19.490Z,22.7
2023-04-09T20:01:21.304Z,22.7
2023-04-09T20:02:22.964Z,22.7
2023-04-09T20:03:25.039Z,22.6
2023-04-09T20:04:26.871Z,22.6
2023-04-09T20:05:28.753Z,22.7
2023-04-09T20:06:30.472Z,22.6
2023-04-09T20:07:32.254Z,22.8
2023-04-09T20:08:33.869Z,22.7
2023-04-09T20:09:35.789Z,22.7
2023-04-09T20:10:37.525Z,22.5
2023-04-09T20:11:39.328Z,22.7
2023-04-09T20:12:41.001Z,22.8
2023-04-09T20:13:42.869Z,22.7
2023-04-09T20:14:44.678Z,22.5
2023-04-09T20:15:46.580Z,22.6
2023-04-09T20:16:48.519Z,22.6
2023-04-09T20:17:50.483Z,22.6
2023-04-09T20:18:52.677Z,22.7
2023-04-09T20:19:54.475Z,22.7
2023-04-09T20:20:56.211Z,22.6
2023-04-09T20:21:58.105Z,22.6
2023-04-09T20:23:00.046Z,22.6
2023-04-09T20:24:01.893Z,22.6
2023-04-09T20:25:04.078Z,22.7
2023-04-09T20:26:05.941Z,22.8
2023-04-09T20:27:07.807Z,22.7
2023-04-09T20:28:09.766Z,22.8
2023-04-09T20:29:12.517Z,22.7
2023-04-09T20:30:14.593Z,22.6
2023-04-09T20:31:16.469Z,22.8
2023-04-09T20:32:18.522Z,22.7
2023-04-09T20:33:20.365Z,22.6
2023-04-09T21:05:22.384Z,22.5
2023-04-09T21:06:19.054Z,22.7
2023-04-09T21:07:20.895Z,22.7
2023-04-09T21:08:22.638Z,22.7
2023-04-09T21:09:24.314Z,22.7
2023-04-09T21:10:25.973Z,22.7
2023-04-09T21:11:27.826Z,22.8
2023-04-09T21:12:29.510Z,22.7
2023-04-09T21:13:37.818Z,22.8
2023-04-09T21:14:36.366Z,22.7
2023-04-09T21:15:38.210Z,22.8
2023-04-09T21:16:39.931Z,22.9
2023-04-09T21:17:41.758Z,22.7
2023-04-09T21:18:43.781Z,22.8
2023-04-09T21:19:45.380Z,22.8
2023-04-09T21:20:47.140Z,22.8
2023-04-09T21:21:48.826Z,22.7
2023-04-09T21:22:50.788Z,22.8
2023-04-09T21:23:52.721Z,22.7
2023-04-09T21:24:54.645Z,22.8
2023-04-09T21:25:56.585Z,22.6
2023-04-09T21:26:58.327Z,22.8
2023-04-09T21:28:00.050Z,22.6
2023-04-09T21:29:01.839Z,22.7
2023-04-09T21:30:03.778Z,22.7
2023-04-09T21:31:05.526Z,22.8
2023-04-09T21:32:07.316Z,22.8
2023-04-09T21:33:09.125Z,22.8
2023-04-09T21:34:11.122Z,22.5
2023-04-09T21:35:13.041Z,22.7
2023-04-09T21:36:14.917Z,22.7
2023-04-09T21:37:16.744Z,22.6
2023-04-09T21:38:18.313Z,22.7
2023-04-09T21:39:19.858Z,22.7
2023-04-09T21:40:21.517Z,22.7
2023-04-09T21:41:23.422Z,22.9
2023-04-09T21:42:25.381Z,22.8
2023-04-09T21:43:27.332Z,22.6
2023-04-09T21:44:29.089Z,22.7
2023-04-09T21:45:30.776Z,22.5
2023-04-09T21:46:32.557Z,22.6
2023-04-09T21:47:34.628Z,22.7
2023-04-09T21:48:37.537Z,22.6
2023-04-09T21:49:42.460Z,22.8
2023-04-09T21:50:44.222Z,22.5
2023-04-09T21:51:45.989Z,22.6
2023-04-09T21:52:47.841Z,22.7
2023-04-09T21:53:49.568Z,22.5
2023-04-09T21:54:51.313Z,22.6
2023-04-09T21:55:53.109Z,22.8
2023-04-09T21:56:55.027Z,22.7
2023-04-09T21:57:56.767Z,22.8
2023-04-09T21:58:58.683Z,22.7
2023-04-09T22:00:00.477Z,22.6
2023-04-09T22:01:02.205Z,22.7
2023-04-09T22:02:03.931Z,22.6
2023-04-09T22:03:05.833Z,22.7
2023-04-09T22:04:08.180Z,22.6
2023-04-09T22:05:10.390Z,22.8
2023-04-09T22:06:12.441Z,22.7
2023-04-09T22:07:14.412Z,22.7
2023-04-09T22:08:16.082Z,22.7
2023-04-09T22:09:17.921Z,22.8
2023-04-09T22:10:19.870Z,22.7
2023-04-09T22:11:21.673Z,22.8
2023-04-09T22:12:23.623Z,22.8
2023-04-09T22:13:25.588Z,22.7
2023-04-09T22:14:27.340Z,22.7
2023-04-09T22:15:29.112Z,22.6
2023-04-09T22:16:31.168Z,22.7
2023-04-09T22:17:33.286Z,22.6
2023-04-09T22:18:35.297Z,22.7
2023-04-09T22:19:36.837Z,22.6
2023-04-09T22:20:38.873Z,22.5
2023-04-09T22:21:40.793Z,22.6
2023-04-09T22:22:42.770Z,22.6
2023-04-09T22:23:44.485Z,22.7
2023-04-09T22:24:46.215Z,22.7
2023-04-09T22:25:47.687Z,22.7
2023-04-09T22:26:49.618Z,22.7
2023-04-09T22:27:51.343Z,22.6
2023-04-09T22:28:53.300Z,22.7
2023-04-09T22:29:55.631Z,22.6
2023-04-09T22:30:57.642Z,22.6
2023-04-09T22:31:59.650Z,22.7
2023-04-09T22:33:01.477Z,22.6
2023-04-09T22:34:13.577Z,22.7
2023-04-09T22:35:08.540Z,22.6
2023-04-09T22:36:10.633Z,22.8
2023-04-09T22:37:12.216Z,22.7
2023-04-09T22:38:14.116Z,22.6
2023-04-09T22:39:15.999Z,22.7
2023-04-09T22:40:17.785Z,22.7
2023-04-09T22:41:19.356Z,22.7
2023-04-09T22:42:21.224Z,22.6
2023-04-09T22:43:23.122Z,22.7
2023-04-09T22:44:25.259Z,22.7
2023-04-09T22:45:27.334Z,22.7
2023-04-09T22:46:29.280Z,22.7
2023-04-09T22:47:31.444Z,22.8
2023-04-09T22:48:35.857Z,22.6
2023-04-09T22:49:38.672Z,22.8
2023-04-09T22:50:40.348Z,22.8
2023-04-09T22:51:42.242Z,22.8
2023-04-09T22:52:44.022Z,22.7
2023-04-09T22:53:45.514Z,22.7
2023-04-09T22:54:47.404Z,22.7
2023-04-09T22:55:49.293Z,22.7
2023-04-09T22:56:51.016Z,22.7
2023-04-09T22:57:52.884Z,22.6
2023-04-09T22:58:54.912Z,22.7
2023-04-09T22:59:56.974Z,22.7
2023-04-09T23:00:58.765Z,22.7
2023-04-09T23:02:00.678Z,22.8
2023-04-09T23:03:02.506Z,22.6
2023-04-09T23:04:04.321Z,22.7
2023-04-09T23:05:06.084Z,22.8
2023-04-09T23:06:07.794Z,22.7
2023-04-09T23:07:09.730Z,22.7
2023-04-09T23:08:11.464Z,22.8
2023-04-09T23:09:13.220Z,22.7
2023-04-09T23:10:15.124Z,22.7
2023-04-09T23:11:17.020Z,22.8
2023-04-09T23:12:18.902Z,23
2023-04-09T23:13:20.579Z,22.9
2023-04-09T23:14:22.456Z,22.7
2023-04-09T23:15:24.331Z,22.8
2023-04-09T23:16:26.151Z,22.7
2023-04-09T23:17:28.097Z,22.8
2023-04-09T23:18:29.894Z,22.9
2023-04-09T23:19:31.451Z,22.8
2023-04-09T23:20:33.318Z,22.9
2023-04-09T23:21:34.906Z,23
2023-04-09T23:22:36.827Z,22.8
2023-04-09T23:23:38.716Z,22.9
2023-04-09T23:24:40.620Z,22.8
2023-04-09T23:25:42.319Z,22.9
2023-04-09T23:26:43.873Z,23
2023-04-09T23:27:45.765Z,22.9
2023-04-09T23:28:47.455Z,22.9
2023-04-09T23:29:49.149Z,22.8
2023-04-09T23:30:50.824Z,22.9
2023-04-09T23:31:52.856Z,23
2023-04-09T23:32:57.071Z,22.9
2023-04-09T23:33:59.727Z,22.8
2023-04-09T23:35:01.202Z,22.8
2023-04-09T23:36:03.121Z,23
2023-04-09T23:37:04.940Z,22.9
2023-04-09T23:38:06.878Z,22.9
2023-04-09T23:39:08.347Z,23
2023-04-09T23:40:10.241Z,22.8
2023-04-09T23:41:12.110Z,23
2023-04-09T23:42:13.978Z,22.9
2023-04-09T23:43:15.521Z,23.1
2023-04-09T23:44:17.295Z,23.1
2023-04-09T23:45:19.162Z,23
2023-04-09T23:46:20.902Z,23
2023-04-09T23:47:22.746Z,23
2023-04-09T23:48:24.516Z,23
2023-04-09T23:49:26.386Z,23
2023-04-09T23:50:28.263Z,22.9
2023-04-09T23:51:30.135Z,23
2023-04-09T23:52:31.856Z,23
2023-04-09T23:53:33.770Z,22.9
2023-04-09T23:54:35.508Z,23.1
2023-04-09T23:55:37.103Z,23
2023-04-09T23:56:38.688Z,23.1
2023-04-09T23:57:40.178Z,23.1
2023-04-09T23:58:42.046Z,23
2023-04-09T23:59:43.768Z,23
